.
WxDataArchive / Data Records for 2011-01-17
2011-01-16 January 2011 2011-01-18

Data Records for Monday, 17 January 2011

Time	Temp	Chill	HIndex	Humid	Dewpt	 Wind 	HiWind	WindDir	Rain 	Barom 
-----	----	-----	------	-----	-----	------	------	-------	-----	----- 
00:00	16.1	16.1	16.1	68	7.4	1	3	112	0.00	30.258 
00:05	15.9	15.9	15.9	69	7.6	1	4	112	0.00	30.258 
00:10	15.6	15.6	15.6	69	7.3	1	2	112	0.00	30.258 
00:15	15.4	15.4	15.4	69	7.1	0	2	112	0.00	30.255 
00:20	15.2	15.2	15.2	70	7.2	1	2	112	0.00	30.255 
00:25	15.1	15.1	15.1	70	7.1	0	2	112	0.00	30.255 
00:30	14.9	14.9	14.9	70	6.9	0	2	112	0.00	30.248 
00:35	14.8	14.8	14.8	71	7.1	0	2	112	0.00	30.248 
00:40	14.6	14.6	14.6	71	6.9	1	2	112	0.00	30.248 
00:45	14.4	14.4	14.4	71	6.7	0	4	112	0.00	30.245 
00:50	14.4	14.4	14.4	71	6.7	1	2	112	0.00	30.245 
00:55	14.3	14.3	14.3	71	6.6	1	2	112	0.00	30.245 
01:00	14.3	14.3	14.3	72	7.0	1	3	112	0.00	30.241 
01:05	14.1	14.1	14.1	72	6.8	1	3	68	0.00	30.241 
01:10	14.1	14.1	14.1	76	8.0	1	2	68	0.00	30.241 
01:15	14.1	14.1	14.1	72	6.8	1	2	68	0.00	30.230 
01:20	14.0	14.0	14.0	72	6.7	1	2	68	0.00	30.230 
01:25	14.0	14.0	14.0	73	7.0	0	2	68	0.00	30.230 
01:30	13.8	13.8	13.8	73	6.8	0	2	68	0.00	30.233 
01:35	13.6	13.6	13.6	73	6.6	0	2	68	0.00	30.233 
01:40	13.5	13.5	13.5	73	6.5	0	1	68	0.00	30.233 
01:45	13.3	13.3	13.3	73	6.3	0	1	68	0.00	30.230 
01:50	13.1	13.1	13.1	74	6.4	0	2	68	0.00	30.230 
01:55	13.1	13.1	13.1	74	6.4	0	2	68	0.00	30.230 
02:00	12.9	12.9	12.9	74	6.2	0	2	68	0.00	30.231 
02:05	12.9	12.9	12.9	74	6.2	0	1	68	0.00	30.231 
02:10	12.8	12.8	12.8	75	6.4	0	1	68	0.00	30.231 
02:15	12.6	12.6	12.6	75	6.2	0	1	68	0.00	30.230 
02:20	12.4	12.4	12.4	75	6.0	0	0	---	0.00	30.230 
02:25	12.3	12.3	12.3	75	5.9	0	0	---	0.00	30.230 
02:30	12.1	12.1	12.1	76	6.0	0	0	---	0.00	30.230 
02:35	11.9	11.9	11.9	76	5.8	0	0	---	0.00	30.230 
02:40	11.7	11.7	11.7	76	5.6	0	1	68	0.00	30.230 
02:45	11.7	11.7	11.7	77	5.9	0	1	68	0.00	30.230 
02:50	11.6	11.6	11.6	77	5.8	0	0	---	0.00	30.230 
02:55	11.4	11.4	11.4	77	5.6	0	0	---	0.00	30.230 
03:00	11.2	11.2	11.2	77	5.4	0	0	---	0.00	30.232 
03:05	11.2	11.2	11.2	78	5.7	0	1	68	0.00	30.232 
03:10	11.2	11.2	11.2	78	5.7	0	1	68	0.00	30.232 
03:15	11.1	11.1	11.1	78	5.6	0	0	---	0.00	30.231 
03:20	10.9	10.9	10.9	78	5.4	0	0	---	0.00	30.231 
03:25	10.7	10.7	10.7	78	5.2	0	0	---	0.00	30.231 
03:30	10.5	10.5	10.5	78	5.0	0	0	---	0.00	30.228 
03:35	10.5	10.5	10.5	79	5.3	0	0	---	0.00	30.228 
03:40	10.4	10.4	10.4	79	5.2	0	1	68	0.00	30.228 
03:45	10.4	10.4	10.4	80	5.5	0	1	68	0.00	30.226 
03:50	10.5	10.5	10.5	80	5.6	0	2	68	0.00	30.226 
03:55	10.7	10.7	10.7	80	5.8	0	2	68	0.00	30.226 
04:00	11.1	11.1	11.1	80	6.2	1	2	68	0.00	30.215 
04:05	11.1	11.1	11.1	80	6.2	0	1	68	0.00	30.215 
04:10	11.1	11.1	11.1	80	6.2	0	1	68	0.00	30.215 
04:15	11.1	11.1	11.1	80	6.2	0	1	68	0.00	30.211 
04:20	10.9	10.9	10.9	80	6.0	0	2	68	0.00	30.211 
04:25	10.9	10.9	10.9	80	6.0	0	1	68	0.00	30.211 
04:30	10.9	10.9	10.9	80	6.0	1	2	68	0.00	30.202 
04:35	10.7	10.7	10.7	80	5.8	0	2	68	0.00	30.202 
04:40	10.5	10.5	10.5	80	5.6	0	1	68	0.00	30.202 
04:45	10.4	10.4	10.4	80	5.5	0	1	68	0.00	30.201 
04:50	10.2	10.2	10.2	80	5.3	0	1	68	0.00	30.201 
04:55	10.2	10.2	10.2	81	5.6	0	3	68	0.00	30.201 
05:00	10.4	10.4	10.4	81	5.7	0	2	68	0.00	30.192 
05:05	10.4	10.4	10.4	81	5.7	0	1	68	0.00	30.192 
05:10	10.4	10.4	10.4	81	5.7	1	3	68	0.00	30.192 
05:15	10.4	10.4	10.4	81	5.7	1	4	68	0.00	30.184 
05:20	10.4	10.4	10.4	82	6.0	1	3	68	0.00	30.184 
05:25	10.4	10.4	10.4	82	6.0	1	3	68	0.00	30.184 
05:30	10.4	10.4	10.4	82	6.0	1	2	68	0.00	30.176 
05:35	10.4	10.4	10.4	82	6.0	1	3	68	0.00	30.176 
05:40	10.4	10.4	10.4	82	6.0	0	2	68	0.00	30.176 
05:45	10.4	10.4	10.4	82	6.0	0	2	68	0.00	30.173 
05:50	10.5	10.5	10.5	82	6.1	1	3	68	0.00	30.173 
05:55	10.5	10.5	10.5	82	6.1	1	4	68	0.00	30.173 
06:00	10.7	10.7	10.7	82	6.3	1	3	68	0.00	30.170 
06:05	10.9	10.9	10.9	82	6.5	1	3	68	0.00	30.170 
06:10	11.1	11.1	11.1	82	6.7	2	4	68	0.00	30.170 
06:15	11.4	11.4	11.4	81	6.7	2	5	68	0.00	30.167 
06:20	11.6	11.6	11.6	81	6.9	2	5	90	0.00	30.167 
06:25	11.6	11.6	11.6	81	6.9	1	4	90	0.00	30.167 
06:30	11.7	11.7	11.7	80	6.7	1	5	90	0.00	30.162 
06:35	11.7	11.7	11.7	80	6.7	1	3	90	0.00	30.162 
06:40	11.7	11.7	11.7	80	6.7	1	3	90	0.00	30.162 
06:45	11.7	11.7	11.7	79	6.5	1	3	90	0.00	30.162 
06:50	11.9	11.9	11.9	79	6.7	1	4	112	0.00	30.162 
06:55	11.9	11.9	11.9	79	6.7	1	4	90	0.00	30.162 
07:00	11.9	11.9	11.9	78	6.4	1	4	90	0.00	30.164 
07:05	11.9	11.9	11.9	78	6.4	1	3	90	0.00	30.164 
07:10	11.9	11.9	11.9	78	6.4	2	5	90	0.00	30.164 
07:15	11.9	11.9	11.9	78	6.4	2	6	90	0.00	30.147 
07:20	11.7	11.7	11.7	77	5.9	2	5	90	0.00	30.147 
07:25	11.6	11.6	11.6	77	5.8	1	4	90	0.00	30.147 
07:30	11.6	11.6	11.6	77	5.8	1	5	90	0.00	30.148 
07:35	11.6	11.6	11.6	77	5.8	1	4	90	0.00	30.148 
07:40	11.4	11.4	11.4	77	5.6	1	3	68	0.00	30.148 
07:45	11.4	11.4	11.4	77	5.6	1	4	68	0.00	30.142 
07:50	11.4	11.4	11.4	77	5.6	1	3	90	0.00	30.142 
07:55	11.2	11.2	11.2	77	5.4	1	3	90	0.00	30.142 
08:00	11.2	11.2	11.2	77	5.4	1	3	90	0.00	30.147 
08:05	11.4	11.4	11.4	77	5.6	1	6	112	0.00	30.147 
08:10	11.4	11.4	11.4	77	5.6	1	3	112	0.00	30.147 
08:15	11.4	11.4	11.4	77	5.6	1	4	90	0.00	30.145 
08:20	11.6	11.6	11.6	77	5.8	1	3	90	0.00	30.145 
08:25	11.6	11.6	11.6	77	5.8	1	3	90	0.00	30.145 
08:30	11.6	11.6	11.6	77	5.8	2	4	90	0.00	30.141 
08:35	11.7	11.7	11.7	77	5.9	1	3	90	0.00	30.141 
08:40	11.7	11.7	11.7	77	5.9	1	3	90	0.00	30.141 
08:45	11.9	11.9	11.9	77	6.1	1	3	90	0.00	30.149 
08:50	11.9	11.9	11.9	77	6.1	1	4	90	0.00	30.149 
08:55	12.1	12.1	12.1	76	6.0	1	4	90	0.00	30.149 
09:00	12.1	12.1	12.1	76	6.0	2	7	90	0.00	30.141 
09:05	12.1	12.1	12.1	76	6.0	2	6	112	0.00	30.141 
09:10	12.3	12.3	12.3	76	6.2	2	5	112	0.00	30.141 
09:15	12.3	12.3	12.3	76	6.2	2	4	90	0.00	30.143 
09:20	12.4	12.4	12.4	75	6.0	1	5	90	0.00	30.143 
09:25	12.6	12.6	12.6	75	6.2	1	5	90	0.00	30.143 
09:30	12.8	12.8	12.8	75	6.4	2	4	90	0.00	30.137 
09:35	12.9	12.9	12.9	74	6.2	3	6	90	0.00	30.137 
09:40	13.1	13.1	13.1	74	6.4	2	5	90	0.00	30.137 
09:45	13.3	13.3	13.3	74	6.6	1	5	90	0.00	30.135 
09:50	13.5	13.5	13.5	73	6.5	2	5	90	0.00	30.135 
09:55	13.6	13.6	13.6	73	6.6	2	4	90	0.00	30.135 
10:00	13.8	13.8	13.8	73	6.8	2	5	112	0.00	30.133 
10:05	14.1	14.1	14.1	73	7.1	1	4	112	0.00	30.133 
10:10	14.3	14.3	14.3	72	7.0	3	5	112	0.00	30.133 
10:15	14.3	14.3	14.3	73	7.3	2	5	90	0.00	30.129 
10:20	14.6	14.6	14.6	72	7.2	2	4	112	0.00	30.129 
10:25	14.9	14.9	14.9	73	7.8	2	4	90	0.00	30.129 
10:30	15.2	15.2	15.2	72	7.8	2	6	90	0.00	30.118 
10:35	15.4	15.4	15.4	72	8.0	2	4	90	0.00	30.118 
10:40	15.7	15.7	15.7	71	8.0	2	4	90	0.00	30.118 
10:45	16.2	16.2	16.2	71	8.5	1	5	90	0.00	30.107 
10:50	16.5	16.5	16.5	71	8.8	1	3	112	0.00	30.107 
10:55	17.0	17.0	17.0	69	8.6	1	4	90	0.00	30.107 
11:00	17.2	17.2	17.2	69	8.8	1	4	68	0.00	30.100 
11:05	17.5	17.5	17.5	69	9.1	1	3	68	0.00	30.100 
11:10	17.7	17.7	17.7	68	9.0	1	3	112	0.00	30.100 
11:15	17.8	17.8	17.8	68	9.1	2	5	112	0.00	30.095 
11:20	18.0	18.0	18.0	68	9.2	1	5	90	0.00	30.095 
11:25	18.0	18.0	18.0	68	9.2	3	5	90	0.00	30.095 
11:30	18.1	18.1	18.1	68	9.3	1	4	135	0.00	30.084 
11:35	18.6	18.6	18.6	68	9.8	1	4	135	0.00	30.084 
11:40	18.9	18.9	18.9	67	9.8	1	4	112	0.00	30.084 
11:45	18.9	18.9	18.9	67	9.8	1	3	90	0.00	30.072 
11:50	19.2	19.2	19.2	67	10.1	1	4	90	0.00	30.072 
11:55	19.4	19.4	19.4	67	10.3	1	4	90	0.00	30.072 
12:00	19.5	19.5	19.5	68	10.7	2	5	112	0.00	30.051 
12:05	19.5	19.5	19.5	67	10.4	2	4	112	0.00	30.051 
12:10	19.7	19.7	19.7	68	10.9	1	6	135	0.00	30.051 
12:15	19.9	19.9	19.9	67	10.7	2	5	90	0.00	30.049 
12:20	20.2	20.2	20.2	68	11.4	1	4	135	0.00	30.049 
12:25	20.3	20.3	20.3	67	11.1	2	6	90	0.00	30.049 
12:30	20.5	20.5	20.5	67	11.3	2	5	112	0.00	30.028 
12:35	20.5	20.5	20.5	67	11.3	2	4	90	0.00	30.028 
12:40	20.6	20.6	20.6	67	11.4	1	3	112	0.00	30.028 
12:45	21.0	21.0	21.0	67	11.8	2	5	90	0.00	30.017 
12:50	21.1	21.1	21.1	68	12.2	1	4	90	0.00	30.017 
12:55	21.6	21.6	21.6	67	12.4	1	3	112	0.00	30.017 
13:00	21.8	21.8	21.8	67	12.6	2	5	112	0.00	30.004 
13:05	22.1	22.1	22.1	67	12.8	2	5	112	0.00	30.004 
13:10	22.4	22.4	22.4	67	13.1	1	6	112	0.00	30.004 
13:15	22.5	22.5	22.5	67	13.2	2	9	90	0.00	29.989 
13:20	22.7	22.7	22.7	67	13.4	3	9	90	0.00	29.989 
13:25	23.0	23.0	23.0	67	13.7	2	4	90	0.00	29.989 
13:30	23.2	23.2	23.2	67	13.9	2	5	112	0.00	29.982 
13:35	23.5	23.5	23.5	68	14.5	2	4	90	0.00	29.982 
13:40	23.5	23.5	23.5	68	14.5	3	9	112	0.00	29.982 
13:45	23.8	23.8	23.8	68	14.8	1	4	68	0.00	29.960 
13:50	24.1	24.1	24.1	68	15.1	2	4	112	0.00	29.960 
13:55	24.2	24.2	24.2	68	15.2	3	7	90	0.00	29.960 
14:00	24.4	24.4	24.4	68	15.4	2	6	90	0.00	29.954 
14:05	24.5	24.5	24.5	69	15.8	2	5	90	0.00	29.954 
14:10	24.8	24.8	24.8	68	15.8	2	6	112	0.00	29.954 
14:15	25.0	25.0	25.0	69	16.3	2	7	90	0.00	29.937 
14:20	25.0	25.0	25.0	69	16.3	3	7	90	0.00	29.937 
14:25	25.0	25.0	25.0	69	16.3	3	7	112	0.00	29.937 
14:30	25.1	25.1	25.1	68	16.1	3	7	112	0.00	29.930 
14:35	25.3	25.3	25.3	69	16.6	2	5	112	0.00	29.930 
14:40	25.3	20.3	25.3	69	16.6	4	10	112	0.00	29.930 
14:45	25.4	25.4	25.4	69	16.7	3	5	90	0.00	29.919 
14:50	25.6	25.6	25.6	69	16.9	3	7	112	0.00	29.919 
14:55	25.7	25.7	25.7	69	17.0	2	7	112	0.00	29.919 
15:00	25.7	25.7	25.7	69	17.0	3	7	112	0.00	29.923 
15:05	25.8	25.8	25.8	69	17.1	3	9	90	0.00	29.923 
15:10	25.8	20.9	25.8	70	17.4	4	6	112	0.00	29.923 
15:15	26.0	26.0	26.0	70	17.6	3	5	90	0.00	29.916 
15:20	26.3	26.3	26.3	70	17.9	2	5	112	0.00	29.916 
15:25	26.4	26.4	26.4	70	18.0	2	6	90	0.00	29.916 
15:30	26.6	26.6	26.6	70	18.2	2	5	68	0.00	29.910 
15:35	26.7	26.7	26.7	70	18.3	2	6	90	0.00	29.910 
15:40	27.0	27.0	27.0	70	18.5	1	4	90	0.00	29.910 
15:45	27.2	27.2	27.2	70	18.7	1	5	135	0.00	29.910 
15:50	27.3	27.3	27.3	70	18.8	3	7	68	0.00	29.910 
15:55	27.3	27.3	27.3	70	18.8	2	7	90	0.00	29.910 
16:00	27.3	22.6	27.3	71	19.2	4	9	112	0.00	29.906 
16:05	27.5	27.5	27.5	71	19.4	2	5	112	0.00	29.906 
16:10	27.6	27.6	27.6	71	19.4	3	9	112	0.00	29.906 
16:15	27.6	27.6	27.6	71	19.4	2	6	112	0.00	29.905 
16:20	27.8	27.8	27.8	72	20.0	2	6	90	0.00	29.905 
16:25	27.9	27.9	27.9	72	20.1	1	3	68	0.00	29.905 
16:30	28.1	28.1	28.1	72	20.3	2	4	112	0.00	29.905 
16:35	28.1	28.1	28.1	73	20.6	1	4	112	0.00	29.905 
16:40	28.2	28.2	28.2	73	20.7	2	5	68	0.00	29.905 
16:45	28.2	28.2	28.2	73	20.7	1	6	90	0.00	29.903 
16:50	28.4	28.4	28.4	73	20.9	1	4	112	0.00	29.903 
16:55	28.4	28.4	28.4	73	20.9	1	4	90	0.00	29.903 
17:00	28.4	28.4	28.4	73	20.9	2	4	90	0.00	29.897 
17:05	28.5	28.5	28.5	74	21.3	2	5	90	0.00	29.897 
17:10	28.5	28.5	28.5	74	21.3	2	4	90	0.00	29.897 
17:15	28.7	28.7	28.7	74	21.5	1	3	135	0.00	29.897 
17:20	28.7	28.7	28.7	75	21.8	1	3	135	0.00	29.897 
17:25	28.7	28.7	28.7	75	21.8	1	5	135	0.00	29.897 
17:30	28.8	28.8	28.8	75	21.9	1	4	135	0.00	29.898 
17:35	28.8	28.8	28.8	75	21.9	1	4	90	0.00	29.898 
17:40	29.0	29.0	29.0	75	22.1	1	4	112	0.00	29.898 
17:45	29.0	29.0	29.0	75	22.1	1	2	90	0.00	29.890 
17:50	29.1	29.1	29.1	76	22.5	2	5	135	0.00	29.890 
17:55	29.1	29.1	29.1	76	22.5	1	4	135	0.00	29.890 
18:00	29.1	29.1	29.1	77	22.8	1	3	135	0.00	29.888 
18:05	29.1	29.1	29.1	77	22.8	1	3	90	0.00	29.888 
18:10	29.1	29.1	29.1	77	22.8	1	3	135	0.00	29.888 
18:15	29.3	29.3	29.3	78	23.3	1	3	90	0.00	29.883 
18:20	29.3	29.3	29.3	78	23.3	1	2	90	0.00	29.883 
18:25	29.3	29.3	29.3	78	23.3	1	3	90	0.00	29.883 
18:30	29.4	29.4	29.4	78	23.4	1	5	90	0.00	29.874 
18:35	29.4	29.4	29.4	78	23.4	1	3	135	0.00	29.874 
18:40	29.4	29.4	29.4	78	23.4	1	4	135	0.00	29.874 
18:45	29.5	29.5	29.5	79	23.8	1	4	135	0.00	29.870 
18:50	29.5	29.5	29.5	79	23.8	1	2	135	0.00	29.870 
18:55	29.7	29.7	29.7	79	24.0	1	3	90	0.00	29.870 
19:00	29.7	29.7	29.7	80	24.3	1	3	112	0.00	29.864 
19:05	29.8	29.8	29.8	80	24.4	1	3	90	0.00	29.864 
19:10	29.8	29.8	29.8	81	24.7	2	3	112	0.00	29.864 
19:15	30.0	30.0	30.0	81	24.9	1	4	90	0.00	29.862 
19:20	30.1	30.1	30.1	81	25.0	1	2	135	0.00	29.862 
19:25	30.1	30.1	30.1	81	25.0	1	3	135	0.00	29.862 
19:30	30.1	30.1	30.1	81	25.0	1	3	112	0.00	29.855 
19:35	30.3	30.3	30.3	81	25.2	1	3	112	0.00	29.855 
19:40	30.3	30.3	30.3	81	25.2	1	3	68	0.00	29.855 
19:45	30.4	30.4	30.4	82	25.6	0	3	270	0.00	29.847 
19:50	30.6	30.6	30.6	82	25.8	1	3	90	0.00	29.847 
19:55	30.7	30.7	30.7	81	25.6	1	4	90	0.00	29.847 
20:00	30.9	30.9	30.9	81	25.8	1	4	112	0.00	29.839 
20:05	31.2	31.2	31.2	80	25.8	1	4	112	0.00	29.839 
20:10	31.3	31.3	31.3	80	25.9	1	4	135	0.00	29.839 
20:15	31.5	31.5	31.5	79	25.8	1	3	90	0.00	29.835 
20:20	31.6	31.6	31.6	78	25.5	1	3	90	0.00	29.835 
20:25	31.6	31.6	31.6	78	25.5	1	3	135	0.00	29.835 
20:30	31.8	31.8	31.8	78	25.7	1	5	90	0.00	29.833 
20:35	31.8	31.8	31.8	77	25.4	1	3	112	0.00	29.833 
20:40	31.9	31.9	31.9	77	25.5	1	4	112	0.00	29.833 
20:45	32.1	32.1	32.1	77	25.7	2	5	112	0.00	29.829 
20:50	32.1	32.1	32.1	77	25.7	2	4	112	0.00	29.829 
20:55	32.2	32.2	32.2	77	25.8	1	4	90	0.00	29.829 
21:00	32.2	32.2	32.2	77	25.8	2	6	112	0.00	29.821 
21:05	32.2	32.2	32.2	77	25.8	2	4	90	0.00	29.821 
21:10	32.2	32.2	32.2	77	25.8	2	5	68	0.00	29.821 
21:15	32.4	32.4	32.4	77	26.0	2	5	90	0.00	29.818 
21:20	32.4	32.4	32.4	77	26.0	2	6	90	0.00	29.818 
21:25	32.4	32.4	32.4	77	26.0	2	4	112	0.00	29.818 
21:30	32.4	32.4	32.4	77	26.0	1	5	90	0.00	29.818 
21:35	32.4	32.4	32.4	77	26.0	1	5	112	0.00	29.818 
21:40	32.5	32.5	32.5	77	26.1	2	4	90	0.00	29.818 
21:45	32.5	32.5	32.5	77	26.1	2	6	90	0.00	29.818 
21:50	32.5	32.5	32.5	78	26.4	2	5	112	0.00	29.818 
21:55	32.7	32.7	32.7	78	26.6	2	5	112	0.00	29.818 
22:00	32.7	32.7	32.7	78	26.6	2	6	112	0.00	29.817 
22:05	32.8	32.8	32.8	79	27.0	1	4	90	0.00	29.817 
22:10	32.8	32.8	32.8	80	27.3	1	5	112	0.00	29.817 
22:15	32.8	32.8	32.8	81	27.6	1	5	112	0.00	29.812 
22:20	32.9	32.9	32.9	81	27.7	2	5	90	0.00	29.812 
22:25	33.1	33.1	33.1	81	27.9	2	5	90	0.00	29.812 
22:30	33.1	33.1	33.1	81	27.9	2	4	90	0.00	29.802 
22:35	33.2	33.2	33.2	82	28.3	2	6	68	0.00	29.802 
22:40	33.4	33.4	33.4	82	28.5	2	5	90	0.00	29.802 
22:45	33.4	33.4	33.4	82	28.5	1	4	135	0.00	29.802 
22:50	33.5	33.5	33.5	82	28.6	2	5	90	0.00	29.802 
22:55	33.7	33.7	33.7	82	28.8	1	5	112	0.00	29.802 
23:00	33.7	33.7	33.7	82	28.8	1	3	90	0.00	29.799 
23:05	33.8	33.8	33.8	82	28.9	1	3	90	0.00	29.799 
23:10	33.8	33.8	33.8	83	29.2	1	4	135	0.00	29.799 
23:15	34.0	34.0	34.0	83	29.4	1	3	90	0.00	29.793 
23:20	34.1	34.1	34.1	83	29.5	1	3	90	0.00	29.793 
23:25	34.4	34.4	34.4	83	29.8	1	5	90	0.00	29.793 
23:30	34.6	34.6	34.6	83	30.0	2	4	90	0.00	29.788 
23:35	34.7	34.7	34.7	83	30.1	1	3	112	0.00	29.788 
23:40	34.9	34.9	34.9	83	30.3	2	5	90	0.00	29.788 
23:45	35.0	35.0	35.0	84	30.7	1	4	68	0.00	29.786 
23:50	35.0	35.0	35.0	84	30.7	1	3	112	0.00	29.786 
23:55	35.0	35.0	35.0	85	31.0	1	5	112	0.00	29.786 

CoCoRaHS
IN-AL-39
A2 Web Hosting
Creative Commons License
GoDaddy
search engine by freefind advanced

loaded 2018-11-14 03:50:30 • last modified 2010-11-18 10:43:29
Privacy PolicyDisclaimer
• wx.awcolley.com is powered by PmWiki v.2002016 •
• all content (unless otherwise noted) © 2018 A W Colley